Time;durP1;ratioP1;P1;durP2;ratioP2;P2;SDS_P1;SDS_P2;PMS_P1;PMS_P2;Temp;Humidity;BMP_temperature;BMP_pressure;BME280_temperature;BME280_humidity;BME280_pressure;Samples;Min_cycle;Max_cycle;Signal;HPM_P1;HPM_P2
2021/08/30 00:26:11;;;;;;;16.13;13.93;;;13.70;99.90;;;;;;4936599;29;20485;-87
2021/08/30 00:29:02;;;;;;;19.17;14.00;;;13.70;99.90;;;;;;4936557;29;21083;-87
2021/08/30 01:29:55;;;;;;;;;;;;;;;;;;;;;
2021/08/30 01:39:52;;;;;;;20.20;17.03;;;13.90;99.90;;;;;;4881200;29;20473;-85
2021/08/30 06:12:14;;;;;;;21.50;17.40;;;14.10;99.90;;;;;;5918985;23;21507;-84
2021/08/30 06:14:41;;;;;;;24.80;17.70;;;14.10;99.90;;;;;;4956127;29;20453;-85
2021/08/30 06:17:08;;;;;;;24.53;18.40;;;14.10;99.90;;;;;;4957032;29;20459;-84
2021/08/30 06:19:35;;;;;;;22.17;18.40;;;14.10;99.90;;;;;;4957669;28;20472;-83
2021/08/30 06:22:02;;;;;;;25.67;19.20;;;14.00;99.90;;;;;;4959082;29;20449;-84
2021/08/30 06:24:29;;;;;;;27.63;20.10;;;14.00;99.90;;;;;;4960765;29;20452;-85
2021/08/30 06:26:56;;;;;;;25.10;16.90;;;14.10;99.90;;;;;;4958568;29;20467;-85
2021/08/30 06:29:24;;;;;;;24.40;17.47;;;14.10;99.90;;;;;;4956430;29;20472;-84
2021/08/30 06:31:52;;;;;;;20.93;18.47;;;14.20;99.90;;;;;;4956682;29;20457;-84
2021/08/30 06:34:19;;;;;;;27.33;19.37;;;14.20;99.90;;;;;;4957208;29;20493;-84
2021/08/30 06:39:36;;;;;;;23.80;17.83;;;14.30;99.90;;;;;;4944904;29;20484;-85
2021/08/30 06:42:04;;;;;;;23.70;18.27;;;14.20;99.90;;;;;;4955150;29;20453;-85
2021/08/30 06:44:32;;;;;;;22.67;19.10;;;14.30;99.90;;;;;;4957343;29;20453;-84
2021/08/30 06:47:00;;;;;;;20.47;16.77;;;14.30;99.90;;;;;;4955701;29;20444;-85
2021/08/30 06:49:45;;;;;;;24.03;17.10;;;14.40;99.90;;;;;;4945972;29;20472;-84
2021/08/30 06:52:17;;;;;;;21.30;17.43;;;14.40;99.90;;;;;;4944919;29;20441;-84
2021/08/30 06:54:45;;;;;;;18.27;14.70;;;14.50;99.90;;;;;;4949418;29;20483;-83
2021/08/30 06:57:35;;;;;;;18.83;16.83;;;14.60;99.90;;;;;;4951688;29;20465;-83
2021/08/30 07:00:03;;;;;;;19.20;15.63;;;14.60;99.90;;;;;;4957108;29;20472;-82
2021/08/30 07:02:30;;;;;;;16.90;15.10;;;14.60;99.90;;;;;;4962823;28;20456;-83
2021/08/30 07:04:56;;;;;;;20.93;15.70;;;14.60;99.90;;;;;;4963571;29;20461;-83
2021/08/30 07:07:23;;;;;;;17.80;15.73;;;14.70;99.90;;;;;;4961633;28;20982;-84
2021/08/30 07:09:50;;;;;;;24.13;18.63;;;14.70;99.90;;;;;;4960462;29;20480;-83
2021/08/30 07:12:17;;;;;;;19.43;16.73;;;14.70;99.90;;;;;;4960647;28;20460;-82
2021/08/30 07:14:44;;;;;;;19.47;15.50;;;14.80;99.90;;;;;;4961080;29;20482;-82
2021/08/30 07:17:12;;;;;;;16.63;14.57;;;14.70;99.90;;;;;;4961272;29;20457;-81
2021/08/30 07:19:39;;;;;;;17.03;14.83;;;14.70;99.90;;;;;;4960728;29;20576;-81
2021/08/30 07:22:06;;;;;;;17.17;15.20;;;14.70;99.90;;;;;;4959888;28;20453;-82
2021/08/30 07:24:33;;;;;;;22.23;16.07;;;14.70;99.90;;;;;;4960805;29;20461;-82
2021/08/30 07:27:02;;;;;;;16.53;14.87;;;14.80;99.90;;;;;;4958631;28;20459;-82
2021/08/30 07:29:28;;;;;;;16.00;14.40;;;14.90;99.90;;;;;;4980116;28;20480;-84
2021/08/30 07:31:55;;;;;;;16.37;13.23;;;15.10;99.90;;;;;;4982130;28;20838;-84
2021/08/30 07:34:24;;;;;;;13.80;12.30;;;15.30;99.90;;;;;;4970972;28;20487;-84
2021/08/30 07:37:15;;;;;;;13.23;11.93;;;15.40;99.90;;;;;;4959995;29;20449;-83
2021/08/30 07:39:42;;;;;;;12.20;11.03;;;15.60;99.90;;;;;;4956552;28;20540;-83
2021/08/30 07:42:09;;;;;;;10.73;9.70;;;15.70;99.90;;;;;;4956863;29;20459;-86
2021/08/30 07:44:36;;;;;;;14.90;12.43;;;15.70;99.90;;;;;;4953436;29;20960;-86
2021/08/30 07:47:09;;;;;;;14.47;12.70;;;15.60;99.90;;;;;;4953604;28;20543;-86
2021/08/30 07:49:37;;;;;;;11.53;10.37;;;15.50;99.90;;;;;;4955619;29;20453;-86
2021/08/30 07:52:09;;;;;;;12.93;11.47;;;15.50;99.90;;;;;;4953426;28;20449;-86
2021/08/30 08:00:55;;;;;;;12.30;10.93;;;15.40;99.90;;;;;;4983136;23;20519;-85
2021/08/30 08:03:22;;;;;;;12.83;10.47;;;15.40;99.90;;;;;;4954395;29;20480;-85
2021/08/30 08:12:48;;;;;;;11.97;10.33;;;15.00;99.90;;;;;;4900507;29;20624;-84
2021/08/30 08:15:31;;;;;;;12.50;11.17;;;15.00;99.90;;;;;;4902035;29;20474;-86
2021/08/30 08:27:21;;;;;;;12.90;11.50;;;15.10;99.90;;;;;;4956671;28;20535;-85
2021/08/30 08:29:49;;;;;;;14.80;11.07;;;15.00;99.90;;;;;;4958345;28;20476;-85
2021/08/30 08:32:16;;;;;;;12.30;11.10;;;15.00;99.90;;;;;;4957163;29;20457;-86
2021/08/30 08:34:43;;;;;;;13.67;11.20;;;15.00;99.90;;;;;;4957453;29;20498;-88
2021/08/30 08:37:14;;;;;;;13.90;10.57;;;15.00;99.90;;;;;;4957327;28;20471;-91
2021/08/30 08:39:40;;;;;;;14.37;10.70;;;15.00;99.90;;;;;;4958626;29;20477;-85
2021/08/30 08:42:07;;;;;;;11.80;9.50;;;15.00;99.90;;;;;;4958791;28;20464;-84
2021/08/30 08:44:34;;;;;;;12.07;10.93;;;15.00;99.90;;;;;;4959115;28;20455;-81
2021/08/30 08:47:16;;;;;;;12.97;10.50;;;15.00;99.90;;;;;;4958943;28;20475;-84
2021/08/30 09:24:14;;;;;;;10.30;9.27;;;15.50;99.90;;;;;;4830224;29;20426;-81
2021/08/30 09:26:46;;;;;;;11.70;10.50;;;15.70;99.90;;;;;;4945840;28;20464;-81
2021/08/30 09:29:19;;;;;;;12.47;10.00;;;15.80;99.90;;;;;;4979009;28;20483;-84
2021/08/30 09:32:00;;;;;;;10.77;9.60;;;15.90;99.90;;;;;;4977491;28;20532;-84
2021/08/30 09:34:33;;;;;;;11.13;10.13;;;16.00;99.90;;;;;;4984864;28;20491;-82
2021/08/30 09:37:00;;;;;;;12.47;11.20;;;16.00;99.90;;;;;;4965207;28;20453;-85
2021/08/30 09:39:30;;;;;;;11.57;10.13;;;16.00;99.90;;;;;;4960779;29;20484;-81
2021/08/30 09:41:58;;;;;;;12.60;11.30;;;16.00;99.90;;;;;;4961587;29;20456;-82
2021/08/30 09:44:26;;;;;;;11.23;10.20;;;16.10;99.90;;;;;;4962347;29;20548;-83
2021/08/30 09:46:53;;;;;;;10.30;9.27;;;16.10;99.90;;;;;;4961038;29;21038;-82
2021/08/30 10:32:45;;;;;;;19.10;17.20;;;15.80;99.90;;;;;;4955968;28;20497;-86
2021/08/30 10:35:24;;;;;;;17.73;15.90;;;15.80;99.90;;;;;;4957451;29;20488;-86
2021/08/30 10:41:19;;;;;;;17.10;14.20;;;15.70;99.90;;;;;;4932762;29;20451;-88
2021/08/30 10:44:06;;;;;;;17.07;13.83;;;15.60;99.90;;;;;;4935612;29;20576;-88
2021/08/30 10:49:45;;;;;;;17.73;15.97;;;15.60;99.90;;;;;;4905765;29;21159;-88
2021/08/30 10:52:26;;;;;;;16.80;15.07;;;15.50;99.90;;;;;;4937269;29;20453;-87
2021/08/30 10:55:01;;;;;;;17.27;14.43;;;15.50;99.90;;;;;;4938259;29;20585;-86
2021/08/30 10:57:56;;;;;;;16.30;14.57;;;15.60;99.90;;;;;;4938394;29;20446;-86
2021/08/30 11:04:08;;;;;;;17.17;14.23;;;15.90;99.90;;;;;;4935886;29;20458;-86
2021/08/30 11:10:23;;;;;;;14.40;13.03;;;16.40;99.90;;;;;;4839811;29;20829;-89
2021/08/30 11:12:51;;;;;;;13.83;12.43;;;16.30;99.90;;;;;;4876428;29;20547;-89
2021/08/30 11:15:45;;;;;;;18.07;16.30;;;16.20;99.90;;;;;;4932943;29;20506;-90
2021/08/30 11:18:12;;;;;;;10.87;8.90;;;16.10;99.90;;;;;;4935876;29;20455;-89
2021/08/30 11:20:47;;;;;;;9.53;8.57;;;15.90;99.90;;;;;;4935181;29;21044;-89
2021/08/30 11:23:15;;;;;;;11.10;9.90;;;15.70;99.90;;;;;;4934607;29;20520;-88
2021/08/30 11:25:44;;;;;;;10.87;9.77;;;15.70;99.90;;;;;;4935493;29;20457;-87
2021/08/30 11:28:15;;;;;;;13.57;11.90;;;15.70;99.90;;;;;;4935045;29;20950;-87
2021/08/30 11:30:42;;;;;;;14.80;12.13;;;15.90;99.90;;;;;;4934971;29;20480;-87
2021/08/30 11:33:09;;;;;;;18.43;13.80;;;16.00;99.90;;;;;;4935134;29;20453;-87
2021/08/30 11:35:36;;;;;;;15.47;13.93;;;16.10;99.90;;;;;;4936906;29;20484;-87
2021/08/30 11:38:11;;;;;;;14.40;12.80;;;16.40;99.90;;;;;;4938531;29;20479;-86
2021/08/30 11:40:38;;;;;;;17.43;12.77;;;16.60;99.90;;;;;;4939126;29;20487;-86
2021/08/30 11:43:14;;;;;;;15.93;12.40;;;16.70;99.90;;;;;;4938255;29;20461;-86
2021/08/30 11:45:41;;;;;;;14.17;12.40;;;16.60;99.90;;;;;;4939109;29;21012;-86
2021/08/30 11:48:14;;;;;;;13.20;11.80;;;16.60;99.90;;;;;;4937660;29;20550;-85
2021/08/30 11:50:42;;;;;;;12.73;11.47;;;16.50;99.90;;;;;;4938627;29;20478;-85
2021/08/30 11:53:13;;;;;;;13.90;12.47;;;16.40;99.90;;;;;;4938645;29;20454;-86
2021/08/30 11:55:40;;;;;;;15.30;12.27;;;16.40;99.90;;;;;;4939486;29;20492;-85
2021/08/30 11:58:07;;;;;;;13.90;12.47;;;16.40;99.90;;;;;;4939492;29;20461;-84
2021/08/30 12:00:36;;;;;;;14.00;12.50;;;16.40;99.90;;;;;;4940513;29;20481;-85
2021/08/30 12:03:13;;;;;;;12.90;11.57;;;16.50;99.90;;;;;;4939393;29;20461;-85
2021/08/30 12:05:44;;;;;;;13.27;12.07;;;16.60;99.90;;;;;;4941725;29;20461;-84
2021/08/30 12:08:12;;;;;;;14.20;12.80;;;16.60;99.90;;;;;;4943096;29;20517;-84
2021/08/30 12:10:40;;;;;;;12.57;11.27;;;16.70;99.90;;;;;;4942090;29;20477;-85
2021/08/30 12:16:01;;;;;;;13.50;12.10;;;16.90;99.90;;;;;;4908245;29;20553;-84
2021/08/30 12:18:28;;;;;;;17.47;11.50;;;17.00;99.90;;;;;;4940054;29;20829;-85
2021/08/30 12:21:04;;;;;;;12.37;11.17;;;17.10;99.90;;;;;;4934961;29;20980;-87
2021/08/30 12:23:32;;;;;;;12.90;11.60;;;17.00;99.90;;;;;;4934548;29;20781;-87
2021/08/30 12:26:00;;;;;;;13.30;11.90;;;16.80;99.90;;;;;;4935773;29;20456;-86
2021/08/30 12:28:27;;;;;;;13.60;12.23;;;16.70;99.90;;;;;;4935335;29;20945;-88
2021/08/30 12:30:54;;;;;;;13.43;11.50;;;16.70;99.90;;;;;;4934573;29;20458;-89
2021/08/30 12:33:30;;;;;;;13.70;12.10;;;16.70;99.90;;;;;;4934350;29;20452;-89
2021/08/30 12:35:59;;;;;;;14.77;13.27;;;16.60;99.90;;;;;;4934680;29;20460;-89
2021/08/30 12:38:38;;;;;;;15.17;13.53;;;16.50;99.90;;;;;;4934804;29;21018;-89
2021/08/30 12:41:07;;;;;;;12.63;11.40;;;16.50;99.90;;;;;;4934690;29;20542;-89
2021/08/30 12:43:34;;;;;;;14.50;13.10;;;16.50;99.90;;;;;;4934377;29;20449;-89
2021/08/30 12:46:18;;;;;;;13.63;12.37;;;16.40;99.90;;;;;;4934675;29;20465;-89
2021/08/30 12:48:46;;;;;;;13.83;12.37;;;16.40;99.90;;;;;;4934508;29;20505;-89
2021/08/30 12:51:13;;;;;;;15.70;14.20;;;16.40;99.90;;;;;;4934335;29;20458;-89
2021/08/30 12:53:43;;;;;;;13.97;12.47;;;16.40;99.90;;;;;;4934129;29;20986;-89
2021/08/30 12:56:21;;;;;;;15.40;13.90;;;16.40;99.90;;;;;;4934335;29;20483;-88
2021/08/30 12:58:49;;;;;;;14.67;13.33;;;16.40;99.90;;;;;;4934509;29;20572;-89
2021/08/30 13:01:18;;;;;;;16.53;14.73;;;16.40;99.90;;;;;;4934382;29;20488;-89
2021/08/30 13:04:05;;;;;;;15.37;13.83;;;16.20;99.90;;;;;;4934364;29;20485;-88
2021/08/30 13:06:34;;;;;;;12.83;11.57;;;16.10;99.90;;;;;;4936647;29;20524;-88
2021/08/30 13:09:02;;;;;;;13.30;11.93;;;15.90;99.90;;;;;;4937734;29;21060;-89
2021/08/30 13:11:29;;;;;;;12.57;11.27;;;15.80;99.90;;;;;;4937439;29;20861;-87
2021/08/30 13:13:58;;;;;;;14.40;12.70;;;15.80;99.90;;;;;;4937323;29;20457;-87
2021/08/30 13:16:28;;;;;;;14.60;12.27;;;15.80;99.90;;;;;;4937523;29;20460;-87
2021/08/30 13:18:57;;;;;;;13.30;12.00;;;15.90;99.90;;;;;;4937404;29;20535;-87
2021/08/30 13:21:24;;;;;;;13.00;11.57;;;15.90;99.90;;;;;;4936732;29;20441;-87
2021/08/30 13:23:55;;;;;;;14.90;11.90;;;16.00;99.90;;;;;;4937117;29;20450;-87
2021/08/30 13:26:30;;;;;;;14.30;12.67;;;16.20;99.90;;;;;;4937158;29;20469;-87
2021/08/30 13:28:57;;;;;;;13.17;11.90;;;16.30;99.90;;;;;;4937596;29;20480;-86
2021/08/30 13:31:25;;;;;;;12.00;11.00;;;16.30;99.90;;;;;;4936897;29;21029;-86
2021/08/30 13:33:51;;;;;;;12.03;10.90;;;16.40;99.90;;;;;;4937207;29;20446;-86
2021/08/30 13:36:20;;;;;;;14.00;12.60;;;16.40;99.90;;;;;;4937656;29;20453;-86
2021/08/30 13:38:46;;;;;;;12.83;11.57;;;16.60;99.90;;;;;;4939439;29;20543;-85
2021/08/30 13:41:13;;;;;;;12.07;10.90;;;16.70;99.90;;;;;;4938143;29;20456;-87
2021/08/30 13:43:40;;;;;;;12.43;11.27;;;16.80;99.90;;;;;;4937313;29;21056;-86
2021/08/30 13:46:06;;;;;;;12.00;10.90;;;16.90;99.90;;;;;;4937502;29;20461;-85
2021/08/30 13:48:35;;;;;;;12.20;11.07;;;16.80;99.90;;;;;;4938840;29;20458;-86
2021/08/30 13:51:01;;;;;;;13.63;12.40;;;16.90;99.90;;;;;;4938590;29;20469;-86
2021/08/30 13:53:29;;;;;;;13.90;12.50;;;17.00;99.90;;;;;;4937347;29;20466;-86
2021/08/30 13:55:56;;;;;;;14.10;12.77;;;17.10;99.90;;;;;;4938549;29;20827;-85
2021/08/30 13:58:23;;;;;;;12.37;11.20;;;17.20;99.90;;;;;;4938266;29;20455;-86
2021/08/30 14:04:26;;;;;;;11.07;7.70;;;17.30;99.90;;;;;;4921753;29;20467;-89
2021/08/30 14:06:56;;;;;;;7.43;6.57;;;17.00;99.90;;;;;;4936689;29;20971;-89
2021/08/30 14:09:24;;;;;;;6.77;6.17;;;16.80;99.90;;;;;;4936620;29;20549;-89
2021/08/30 14:11:58;;;;;;;7.73;6.57;;;16.50;99.90;;;;;;4936664;29;20458;-88
2021/08/30 14:14:25;;;;;;;6.83;6.23;;;16.40;99.90;;;;;;4936360;29;20477;-88
2021/08/30 14:16:52;;;;;;;7.00;6.40;;;16.20;99.90;;;;;;4935661;29;20938;-88
2021/08/30 14:19:19;;;;;;;7.37;6.60;;;16.10;99.90;;;;;;4936443;29;20912;-87
2021/08/30 14:21:46;;;;;;;10.53;8.63;;;16.10;99.90;;;;;;4935639;29;20468;-88
2021/08/30 14:24:12;;;;;;;8.57;7.77;;;15.90;99.90;;;;;;4936187;29;20461;-87
2021/08/30 14:26:41;;;;;;;12.27;9.40;;;15.70;99.90;;;;;;4936083;29;20452;-87
2021/08/30 14:29:07;;;;;;;9.50;8.50;;;15.80;99.90;;;;;;4935858;29;20545;-87
2021/08/30 14:31:34;;;;;;;10.33;9.30;;;15.80;99.90;;;;;;4935313;29;20548;-86
2021/08/30 14:34:01;;;;;;;10.03;9.03;;;15.80;99.90;;;;;;4936164;29;20462;-87
2021/08/30 14:36:31;;;;;;;9.67;8.80;;;15.70;99.90;;;;;;4935860;29;21032;-86
2021/08/30 14:38:57;;;;;;;12.27;11.17;;;15.80;99.90;;;;;;4935729;29;21003;-86
2021/08/30 14:41:24;;;;;;;10.73;9.60;;;15.80;99.90;;;;;;4935430;29;20461;-87
2021/08/30 14:43:56;;;;;;;11.73;10.53;;;15.80;99.90;;;;;;4936579;29;20538;-86
2021/08/30 14:46:23;;;;;;;11.30;10.13;;;15.80;99.90;;;;;;4936179;29;20442;-86
2021/08/30 14:48:50;;;;;;;14.13;11.90;;;16.00;99.90;;;;;;4936147;29;20468;-85
2021/08/30 14:51:17;;;;;;;10.77;9.77;;;16.20;99.90;;;;;;4936824;29;20457;-85
2021/08/30 14:53:43;;;;;;;12.20;9.90;;;16.20;99.90;;;;;;4935930;29;20489;-86
2021/08/30 14:56:10;;;;;;;10.00;9.00;;;16.40;99.90;;;;;;4936375;29;20485;-85
2021/08/30 14:58:37;;;;;;;8.17;7.37;;;16.50;99.90;;;;;;4937911;29;20812;-85
2021/08/30 15:01:05;;;;;;;9.30;7.97;;;16.50;99.90;;;;;;4937829;29;20831;-85
2021/08/30 15:03:32;;;;;;;9.50;8.60;;;16.60;99.90;;;;;;4937844;29;20453;-85
2021/08/30 15:06:04;;;;;;;10.00;9.10;;;16.60;99.90;;;;;;4937953;29;20463;-85
2021/08/30 15:08:36;;;;;;;11.40;9.90;;;16.60;99.90;;;;;;4938443;29;20450;-86
2021/08/30 15:11:07;;;;;;;10.87;9.77;;;16.60;99.90;;;;;;4937733;29;20458;-85
2021/08/30 15:13:35;;;;;;;11.40;9.77;;;16.60;99.90;;;;;;4937439;29;20441;-85
2021/08/30 15:16:01;;;;;;;11.87;10.70;;;16.70;99.90;;;;;;4939361;29;20505;-85
2021/08/30 15:18:32;;;;;;;10.43;9.33;;;16.90;99.90;;;;;;4940904;29;20461;-85
2021/08/30 16:01:07;;;;;;;10.80;9.90;;;16.50;99.90;;;;;;5107338;23;20487;-85
2021/08/30 16:03:34;;;;;;;11.60;9.80;;;16.60;99.90;;;;;;4955543;28;20500;-84
2021/08/30 16:06:37;;;;;;;9.70;8.83;;;16.70;99.90;;;;;;4961359;28;20488;-85
2021/08/30 16:09:15;;;;;;;14.03;10.40;;;16.60;99.90;;;;;;4953446;29;20500;-86
2021/08/30 16:15:52;;;;;;;11.47;10.37;;;16.40;99.90;;;;;;4953247;29;20994;-86
2021/08/30 16:29:11;;;;;;;12.80;11.50;;;16.50;99.90;;;;;;4767735;30;20467;-85
2021/08/30 17:21:28;;;;;;;12.67;11.20;;;16.30;99.90;;;;;;5068396;23;20579;-86
2021/08/30 17:49:11;;;;;;;13.57;12.37;;;15.90;99.90;;;;;;4941830;29;20470;-85
2021/08/30 17:51:40;;;;;;;13.83;12.40;;;15.80;99.90;;;;;;4938662;29;20454;-87
2021/08/30 17:54:07;;;;;;;15.77;13.20;;;15.70;99.90;;;;;;4945853;29;20469;-86
2021/08/30 17:56:35;;;;;;;13.80;12.30;;;15.70;99.90;;;;;;4945570;29;20489;-86
2021/08/30 17:59:02;;;;;;;12.40;11.00;;;15.60;99.90;;;;;;4943820;29;20484;-85
2021/08/30 18:01:30;;;;;;;13.60;12.20;;;15.60;99.90;;;;;;4942166;29;20825;-85
2021/08/30 18:03:57;;;;;;;13.10;11.43;;;15.50;99.90;;;;;;4940671;29;20457;-85
2021/08/30 18:06:24;;;;;;;11.63;10.53;;;15.50;99.90;;;;;;4942308;29;20456;-85
2021/08/30 18:08:51;;;;;;;12.93;11.70;;;15.50;99.90;;;;;;4942450;29;20477;-86
2021/08/30 18:11:18;;;;;;;13.20;11.10;;;15.40;99.90;;;;;;4944299;29;20456;-85
2021/08/30 18:13:45;;;;;;;15.60;13.90;;;15.40;99.90;;;;;;4940717;29;20977;-85
2021/08/30 18:16:12;;;;;;;17.20;14.10;;;15.40;99.90;;;;;;4942764;29;20497;-85
2021/08/30 18:18:40;;;;;;;13.70;12.10;;;15.40;99.90;;;;;;4943835;29;20442;-86
2021/08/30 18:21:07;;;;;;;15.40;13.40;;;15.40;99.90;;;;;;4942585;29;20453;-86
2021/08/30 18:23:33;;;;;;;14.93;13.30;;;15.40;99.90;;;;;;4939375;29;20453;-85
2021/08/30 18:26:00;;;;;;;14.37;12.10;;;15.40;99.90;;;;;;4938854;29;20457;-85
2021/08/30 18:28:27;;;;;;;15.13;13.53;;;15.40;99.90;;;;;;4939954;29;21052;-87
2021/08/30 18:30:54;;;;;;;14.80;13.23;;;15.30;99.90;;;;;;4938685;29;20554;-85
2021/08/30 18:33:20;;;;;;;17.23;13.53;;;15.30;99.90;;;;;;4938271;29;20465;-85
2021/08/30 18:35:48;;;;;;;16.30;13.90;;;15.20;99.90;;;;;;4936612;29;20489;-86
2021/08/30 18:38:15;;;;;;;18.37;16.47;;;15.20;99.90;;;;;;4938182;29;20484;-86
2021/08/30 20:34:11;;;;;;;23.83;19.80;;;15.00;99.90;;;;;;4826575;29;20429;-83
2021/08/30 20:36:37;;;;;;;23.50;18.70;;;15.00;99.90;;;;;;4883618;29;20487;-84
2021/08/30 20:39:04;;;;;;;22.13;19.67;;;15.00;99.90;;;;;;4894003;29;20460;-83
2021/08/30 20:41:31;;;;;;;21.27;18.97;;;15.00;99.90;;;;;;4941323;29;20834;-84
2021/08/30 20:43:57;;;;;;;23.57;19.10;;;15.00;99.90;;;;;;4942578;29;20460;-84
2021/08/30 20:46:24;;;;;;;22.07;18.67;;;15.00;99.90;;;;;;4943085;29;20454;-84
2021/08/30 20:48:51;;;;;;;25.30;18.10;;;15.00;99.90;;;;;;4944648;29;20457;-84
2021/08/30 20:51:21;;;;;;;27.83;18.73;;;15.00;99.90;;;;;;4942996;29;20473;-84
2021/08/30 20:53:48;;;;;;;21.93;16.90;;;15.00;99.90;;;;;;4942348;29;20453;-83
2021/08/30 20:56:17;;;;;;;20.07;17.67;;;15.00;99.90;;;;;;4943144;29;20489;-84
2021/08/30 20:58:44;;;;;;;23.60;18.60;;;15.00;99.90;;;;;;4942036;29;20468;-84
2021/08/30 21:01:11;;;;;;;20.37;18.20;;;15.00;99.90;;;;;;4942196;29;20477;-84
2021/08/30 21:03:38;;;;;;;23.10;16.97;;;15.00;99.90;;;;;;4940955;29;20458;-84
2021/08/30 21:06:04;;;;;;;18.63;16.17;;;15.10;99.90;;;;;;4940896;29;20473;-84
2021/08/30 21:08:32;;;;;;;19.27;17.00;;;15.10;99.90;;;;;;4943028;29;20463;-84
2021/08/30 21:10:59;;;;;;;24.00;17.07;;;15.00;99.90;;;;;;4940855;29;20849;-84
2021/08/30 21:13:26;;;;;;;23.70;17.80;;;15.00;99.90;;;;;;4939857;29;20453;-83
2021/08/30 21:15:53;;;;;;;22.67;16.83;;;15.00;99.90;;;;;;4940812;29;21031;-84
2021/08/30 21:18:19;;;;;;;17.27;15.13;;;15.10;99.90;;;;;;4940738;29;20468;-84
2021/08/30 21:20:48;;;;;;;21.40;16.40;;;15.10;99.90;;;;;;4941046;29;20989;-84
2021/08/30 21:23:16;;;;;;;16.90;15.17;;;15.10;99.90;;;;;;4939664;29;20457;-84
2021/08/30 21:25:44;;;;;;;19.73;15.73;;;15.00;99.90;;;;;;4940011;29;20465;-84
2021/08/30 21:28:11;;;;;;;15.83;14.30;;;15.10;99.90;;;;;;4941009;29;20461;-85
